Time;durP1;ratioP1;P1;durP2;ratioP2;P2;SDS_P1;SDS_P2;PMS_P1;PMS_P2;Temp;Humidity;BMP_temperature;BMP_pressure;BME280_temperature;BME280_humidity;BME280_pressure;Samples;Min_cycle;Max_cycle;Signal;HPM_P1;HPM_P2
2022/12/21 00:00:15;;;;;;;42.38;19.40;;;7.60;99.90;;;;;;5128725;28;20041;-81
2022/12/21 00:02:40;;;;;;;88.05;22.83;;;7.50;99.90;;;;;;5118704;28;20066;-81
2022/12/21 00:05:10;;;;;;;41.35;19.98;;;7.50;99.90;;;;;;5116789;28;20063;-82
2022/12/21 00:07:36;;;;;;;52.22;21.15;;;7.50;99.90;;;;;;5081328;28;20043;-82
2022/12/21 00:10:02;;;;;;;58.78;21.50;;;7.40;99.90;;;;;;5116916;28;20047;-81
2022/12/21 00:12:27;;;;;;;53.35;19.90;;;7.40;99.90;;;;;;5098276;28;20036;-80
2022/12/21 00:14:53;;;;;;;90.47;22.45;;;7.40;99.90;;;;;;5116701;28;20172;-82
2022/12/21 00:17:18;;;;;;;73.47;21.08;;;7.30;99.90;;;;;;5127691;28;20419;-81
2022/12/21 00:19:44;;;;;;;61.90;21.10;;;7.30;99.90;;;;;;5118397;28;20028;-81
2022/12/21 00:22:10;;;;;;;50.63;19.92;;;7.30;99.90;;;;;;5115040;28;20099;-80
2022/12/21 00:24:35;;;;;;;82.00;23.02;;;7.30;99.90;;;;;;5115262;28;20533;-81
2022/12/21 00:27:01;;;;;;;66.13;20.55;;;7.30;99.90;;;;;;5114652;28;20035;-82
2022/12/21 00:29:27;;;;;;;95.30;23.13;;;7.30;99.90;;;;;;5115619;28;20040;-81
2022/12/21 00:31:53;;;;;;;147.02;27.38;;;7.30;99.90;;;;;;5118482;28;20067;-80
2022/12/21 00:34:21;;;;;;;140.63;24.17;;;7.30;99.90;;;;;;5119385;28;20040;-82
2022/12/21 00:36:47;;;;;;;182.45;25.25;;;7.20;99.90;;;;;;5118951;28;20401;-80
2022/12/21 00:39:13;;;;;;;133.63;22.65;;;7.20;99.90;;;;;;5118454;28;20069;-82
2022/12/21 00:41:39;;;;;;;192.50;24.33;;;7.20;99.90;;;;;;5119039;28;20489;-81
2022/12/21 00:44:04;;;;;;;109.38;19.85;;;7.20;99.90;;;;;;5121284;27;20031;-81
2022/12/21 00:46:31;;;;;;;93.00;20.85;;;7.20;99.90;;;;;;5129941;27;20539;-81
2022/12/21 00:48:58;;;;;;;77.15;19.48;;;7.10;99.90;;;;;;5122547;27;20035;-82
2022/12/21 00:51:25;;;;;;;72.32;19.58;;;7.10;99.90;;;;;;5131209;27;20047;-80
2022/12/21 00:53:53;;;;;;;84.72;19.45;;;7.10;99.90;;;;;;5120406;27;20115;-80
2022/12/21 00:56:19;;;;;;;153.40;22.00;;;7.10;99.90;;;;;;5119468;28;20042;-82
2022/12/21 00:58:44;;;;;;;72.55;19.02;;;7.10;99.90;;;;;;5118615;28;20039;-80
2022/12/21 01:01:21;;;;;;;91.38;19.17;;;7.10;99.90;;;;;;5118970;28;20047;-81
2022/12/21 01:03:48;;;;;;;63.22;16.77;;;7.10;99.90;;;;;;5118742;28;20468;-80
2022/12/21 01:06:20;;;;;;;153.65;22.33;;;7.10;99.90;;;;;;5118944;28;20492;-82
2022/12/21 01:08:46;;;;;;;85.43;18.98;;;7.10;99.90;;;;;;5118007;28;20068;-81
2022/12/21 01:11:13;;;;;;;83.75;18.95;;;7.10;99.90;;;;;;5118276;28;20036;-80
2022/12/21 01:13:40;;;;;;;107.88;19.90;;;7.10;99.90;;;;;;5118044;28;20042;-80
2022/12/21 01:16:20;;;;;;;107.03;19.23;;;7.00;99.90;;;;;;5118018;28;20054;-80
2022/12/21 01:18:46;;;;;;;72.80;18.67;;;7.00;99.90;;;;;;5116792;28;20040;-81
2022/12/21 01:21:24;;;;;;;123.22;20.33;;;7.00;99.90;;;;;;5116379;28;20497;-80
2022/12/21 01:23:49;;;;;;;141.38;20.02;;;6.90;99.90;;;;;;5117361;28;20485;-80
2022/12/21 01:26:16;;;;;;;67.20;17.33;;;6.90;99.90;;;;;;5099561;28;20052;-80
2022/12/21 01:28:42;;;;;;;96.88;18.35;;;6.90;99.90;;;;;;5118663;28;20046;-81
2022/12/21 01:31:07;;;;;;;81.72;16.48;;;6.80;99.90;;;;;;5118195;28;20095;-80
2022/12/21 01:33:33;;;;;;;95.70;17.27;;;6.80;99.90;;;;;;5117431;28;20065;-81
2022/12/21 01:36:11;;;;;;;104.07;15.68;;;6.80;99.90;;;;;;5118005;28;20044;-81
2022/12/21 01:38:39;;;;;;;49.40;13.82;;;6.70;99.90;;;;;;5117204;28;20039;-80
2022/12/21 01:41:05;;;;;;;57.17;14.70;;;6.70;99.90;;;;;;5118064;28;20057;-80
2022/12/21 01:43:43;;;;;;;120.18;17.67;;;6.60;99.90;;;;;;5117575;28;20031;-80
2022/12/21 01:46:15;;;;;;;72.63;15.15;;;6.60;99.90;;;;;;5118409;27;20043;-81
2022/12/21 01:48:44;;;;;;;106.00;17.73;;;6.60;99.90;;;;;;5117917;28;20040;-82
2022/12/21 01:51:11;;;;;;;82.95;16.52;;;6.60;99.90;;;;;;5117216;28;20043;-81
2022/12/21 01:53:42;;;;;;;69.22;13.38;;;6.60;99.90;;;;;;5116866;28;20115;-82
2022/12/21 01:56:10;;;;;;;88.85;17.70;;;6.60;99.90;;;;;;5117002;28;20035;-81
2022/12/21 01:58:36;;;;;;;119.43;17.30;;;6.60;99.90;;;;;;5117893;28;20050;-81
2022/12/21 02:01:03;;;;;;;114.82;17.75;;;6.50;99.90;;;;;;5117576;28;20036;-81
2022/12/21 02:03:39;;;;;;;129.82;17.63;;;6.60;99.90;;;;;;5117491;28;20034;-81
2022/12/21 02:06:09;;;;;;;178.57;18.10;;;6.60;99.90;;;;;;5116539;28;20075;-81
2022/12/21 02:08:35;;;;;;;91.28;15.60;;;6.50;99.90;;;;;;5117063;28;20093;-81
2022/12/21 02:11:01;;;;;;;276.67;22.38;;;6.50;99.90;;;;;;5117270;28;20036;-81
2022/12/21 02:13:27;;;;;;;79.70;14.05;;;6.50;99.90;;;;;;5116493;28;20456;-81
2022/12/21 02:15:58;;;;;;;159.52;17.70;;;6.50;99.90;;;;;;5117202;28;20035;-80
2022/12/21 02:18:48;;;;;;;126.75;14.57;;;6.50;99.90;;;;;;5116875;28;20122;-81
2022/12/21 02:21:33;;;;;;;178.52;17.23;;;6.50;99.90;;;;;;5116221;28;20036;-80
2022/12/21 02:24:18;;;;;;;102.13;14.48;;;6.40;99.90;;;;;;5115637;28;20485;-81
2022/12/21 02:27:15;;;;;;;90.00;13.85;;;6.40;99.90;;;;;;5115877;28;20043;-82
2022/12/21 02:29:55;;;;;;;109.47;13.95;;;6.40;99.90;;;;;;5117258;28;20114;-81
2022/12/21 02:32:54;;;;;;;129.90;14.63;;;6.40;99.90;;;;;;5116927;28;20088;-82
2022/12/21 02:35:47;;;;;;;100.25;14.23;;;6.40;99.90;;;;;;5116581;28;20543;-80
2022/12/21 02:38:35;;;;;;;115.97;13.43;;;6.30;99.90;;;;;;5113777;28;20103;-81
2022/12/21 02:41:19;;;;;;;97.78;13.02;;;6.30;99.90;;;;;;5116139;28;20071;-83
2022/12/21 02:46:37;;;;;;;145.65;13.85;;;6.20;99.90;;;;;;5117212;28;20039;-80
2022/12/21 02:49:06;;;;;;;124.65;13.90;;;6.20;99.90;;;;;;5124704;27;20053;-82
2022/12/21 02:51:43;;;;;;;145.57;15.55;;;6.10;99.90;;;;;;5138216;27;20066;-81
2022/12/21 02:54:09;;;;;;;174.77;15.80;;;6.10;99.90;;;;;;5117020;27;20057;-80
2022/12/21 02:56:35;;;;;;;151.63;15.10;;;6.10;99.90;;;;;;5116931;28;20685;-81
2022/12/21 02:59:02;;;;;;;110.40;12.88;;;6.10;99.90;;;;;;5116621;28;20046;-81
2022/12/21 03:02:09;;;;;;;171.65;17.45;;;6.20;99.90;;;;;;5117128;28;20031;-81
2022/12/21 03:04:43;;;;;;;105.10;12.07;;;6.10;99.90;;;;;;5117423;28;20067;-80
2022/12/21 03:07:30;;;;;;;73.13;11.38;;;6.10;99.90;;;;;;5116077;28;20039;-81
2022/12/21 03:10:20;;;;;;;257.08;20.00;;;6.10;99.90;;;;;;5115908;28;20408;-83
2022/12/21 03:13:00;;;;;;;141.38;13.85;;;6.10;99.90;;;;;;5116346;28;20050;-83
2022/12/21 03:15:46;;;;;;;77.05;12.32;;;6.10;99.90;;;;;;5116255;28;20126;-83
2022/12/21 03:18:16;;;;;;;63.22;11.90;;;6.20;99.90;;;;;;5116327;28;20080;-82
2022/12/21 03:20:59;;;;;;;115.07;15.30;;;6.10;99.90;;;;;;5133606;27;20508;-82
2022/12/21 03:23:41;;;;;;;190.30;17.70;;;6.20;99.90;;;;;;5136583;27;20046;-82
2022/12/21 03:26:24;;;;;;;176.32;17.60;;;6.20;99.90;;;;;;5137090;27;20030;-81
2022/12/21 03:28:53;;;;;;;156.47;15.17;;;6.20;99.90;;;;;;5123078;27;20043;-83
2022/12/21 03:31:23;;;;;;;93.35;13.60;;;6.30;99.90;;;;;;5116137;28;20847;-81
2022/12/21 03:33:56;;;;;;;124.30;14.15;;;6.30;99.90;;;;;;5115270;28;20043;-81
2022/12/21 03:36:31;;;;;;;103.32;14.60;;;6.30;99.90;;;;;;5117034;28;20036;-81
2022/12/21 03:39:03;;;;;;;130.43;13.70;;;6.30;99.90;;;;;;5114255;28;20035;-80
2022/12/21 03:41:34;;;;;;;80.47;12.95;;;6.30;99.90;;;;;;5114991;28;20037;-81
2022/12/21 03:44:02;;;;;;;53.25;11.10;;;6.20;99.90;;;;;;5115173;28;20500;-80
2022/12/21 03:46:34;;;;;;;96.10;13.15;;;6.30;99.90;;;;;;5115390;28;20077;-81
2022/12/21 03:49:05;;;;;;;156.48;15.18;;;6.30;99.90;;;;;;5115662;28;20042;-80
2022/12/21 03:51:39;;;;;;;107.22;13.05;;;6.30;99.90;;;;;;5114353;28;20516;-80
2022/12/21 03:54:11;;;;;;;;;;;6.20;99.90;;;;;;5116828;28;20492;-81
2022/12/21 03:56:39;;;;;;;82.22;10.05;;;6.20;99.90;;;;;;5097014;28;20385;-80
2022/12/21 03:59:07;;;;;;;62.67;10.32;;;6.20;99.90;;;;;;5115019;28;20369;-82
2022/12/21 04:01:47;;;;;;;98.95;11.43;;;6.10;99.90;;;;;;5115117;28;20110;-81
2022/12/21 04:04:34;;;;;;;122.38;12.82;;;6.10;99.90;;;;;;5114737;28;20035;-81
2022/12/21 04:07:05;;;;;;;74.45;10.25;;;6.10;99.90;;;;;;5100209;28;20050;-80
2022/12/21 04:09:31;;;;;;;72.38;10.63;;;6.00;99.90;;;;;;5120330;28;20038;-80
2022/12/21 04:14:40;;;;;;;111.20;11.73;;;6.00;99.90;;;;;;5119971;28;20548;-81
2022/12/21 04:17:06;;;;;;;89.47;10.52;;;6.00;99.90;;;;;;5117580;28;20119;-81
2022/12/21 04:28:07;;;;;;;109.88;12.30;;;6.00;99.90;;;;;;5118377;28;20040;-82
2022/12/21 04:30:30;;;;;;;;;;;6.10;99.90;;;;;;5118845;28;20051;-81
2022/12/21 04:32:56;;;;;;;33.15;8.85;;;6.00;99.90;;;;;;5119772;28;19915;-81
2022/12/21 04:35:21;;;;;;;95.05;10.98;;;6.00;99.90;;;;;;5119366;28;20124;-81
2022/12/21 04:37:47;;;;;;;163.10;13.88;;;6.00;99.90;;;;;;5119217;28;20065;-81
2022/12/21 04:40:12;;;;;;;124.60;10.95;;;6.10;99.90;;;;;;5118412;28;20042;-82
2022/12/21 04:42:39;;;;;;;129.50;12.65;;;6.30;99.90;;;;;;5118312;28;20027;-81
2022/12/21 04:45:05;;;;;;;160.80;11.85;;;6.10;99.90;;;;;;5119168;28;20390;-81
2022/12/21 04:47:31;;;;;;;176.32;12.68;;;6.00;99.90;;;;;;5100172;28;20040;-83
2022/12/21 04:49:56;;;;;;;125.57;11.52;;;6.00;99.90;;;;;;5119748;28;20100;-81
2022/12/21 04:52:22;;;;;;;82.68;9.43;;;6.00;99.90;;;;;;5120071;28;20439;-81
2022/12/21 04:54:47;;;;;;;101.25;9.95;;;6.00;99.90;;;;;;5119233;28;20093;-80
2022/12/21 04:57:13;;;;;;;83.13;9.75;;;6.00;99.90;;;;;;5119036;28;20033;-81
2022/12/21 04:59:38;;;;;;;118.53;11.20;;;6.00;99.90;;;;;;5119252;28;20036;-80
2022/12/21 05:02:04;;;;;;;89.88;10.40;;;6.00;99.90;;;;;;5118092;28;20036;-81
2022/12/21 05:04:30;;;;;;;118.43;11.10;;;6.00;99.90;;;;;;5117275;28;20331;-82
2022/12/21 05:06:55;;;;;;;87.13;10.45;;;6.00;99.90;;;;;;5117753;28;20144;-82
2022/12/21 05:09:21;;;;;;;167.80;13.02;;;6.00;99.90;;;;;;5119070;28;20100;-81
2022/12/21 05:11:46;;;;;;;151.45;12.02;;;5.90;99.90;;;;;;5119282;28;20044;-81
2022/12/21 05:14:12;;;;;;;66.60;9.60;;;5.90;99.90;;;;;;5118422;28;20047;-81
2022/12/21 05:16:40;;;;;;;118.40;9.88;;;5.90;99.90;;;;;;5117317;28;20039;-82
2022/12/21 05:19:06;;;;;;;115.05;10.15;;;5.90;99.90;;;;;;5118651;28;20092;-82
2022/12/21 05:21:32;;;;;;;176.77;12.15;;;5.90;99.90;;;;;;5118336;28;20091;-83
2022/12/21 05:23:57;;;;;;;97.22;9.73;;;5.90;99.90;;;;;;5118042;28;20231;-80
2022/12/21 05:26:23;;;;;;;66.75;8.80;;;5.90;99.90;;;;;;5117328;28;20417;-82
2022/12/21 05:28:49;;;;;;;57.03;8.50;;;5.90;99.90;;;;;;5117555;28;20496;-81
2022/12/21 05:31:16;;;;;;;51.50;8.25;;;5.90;99.90;;;;;;5118368;28;20532;-82
2022/12/21 05:33:42;;;;;;;101.50;10.13;;;5.80;99.90;;;;;;5118730;28;20076;-82
2022/12/21 05:36:10;;;;;;;80.18;9.25;;;5.70;99.90;;;;;;5119652;28;20040;-81
2022/12/21 05:38:36;;;;;;;76.53;9.25;;;5.70;99.90;;;;;;5118217;28;20415;-81
2022/12/21 05:41:02;;;;;;;86.93;9.07;;;5.80;99.90;;;;;;5117145;28;20194;-80
2022/12/21 05:43:27;;;;;;;61.42;8.43;;;5.70;99.90;;;;;;5117478;28;20032;-82
2022/12/21 05:45:53;;;;;;;41.55;7.95;;;5.70;99.90;;;;;;5124704;27;20035;-82
2022/12/21 05:48:19;;;;;;;81.53;9.88;;;5.70;99.90;;;;;;5120483;27;20047;-81
2022/12/21 05:50:44;;;;;;;102.80;10.07;;;5.70;99.90;;;;;;5133496;27;20500;-81
2022/12/21 05:53:10;;;;;;;97.70;10.48;;;5.70;99.90;;;;;;5118594;28;20305;-81
2022/12/21 05:55:36;;;;;;;84.28;9.75;;;5.70;99.90;;;;;;5118650;28;20083;-81
2022/12/21 05:58:02;;;;;;;72.10;9.30;;;5.70;99.90;;;;;;5099390;28;20050;-80
2022/12/21 06:00:28;;;;;;;66.13;9.32;;;5.70;99.90;;;;;;5117659;28;20114;-81
2022/12/21 06:02:53;;;;;;;126.00;11.65;;;5.80;99.90;;;;;;5117531;28;20115;-82
2022/12/21 06:05:19;;;;;;;36.50;7.88;;;5.70;99.90;;;;;;5117674;28;20110;-82
2022/12/21 06:07:45;;;;;;;50.88;9.95;;;5.80;99.90;;;;;;5117905;28;20446;-81
2022/12/21 06:10:10;;;;;;;59.78;9.43;;;5.80;99.90;;;;;;5117698;28;20115;-80
2022/12/21 06:12:36;;;;;;;43.72;9.40;;;5.80;99.90;;;;;;5117757;28;20516;-81
2022/12/21 06:15:01;;;;;;;53.15;9.68;;;5.80;99.90;;;;;;5116220;28;20036;-82
2022/12/21 06:17:28;;;;;;;77.55;10.35;;;5.80;99.90;;;;;;5117600;28;20454;-81
2022/12/21 06:19:55;;;;;;;80.43;11.25;;;5.80;99.90;;;;;;5117511;28;20036;-81
2022/12/21 06:22:20;;;;;;;99.07;10.70;;;5.80;99.90;;;;;;5117220;28;20396;-81
2022/12/21 06:24:46;;;;;;;108.53;10.10;;;5.80;99.90;;;;;;5118272;28;20110;-81
2022/12/21 06:27:11;;;;;;;104.68;10.93;;;5.80;99.90;;;;;;5115860;28;20040;-81
2022/12/21 06:29:37;;;;;;;70.93;11.57;;;5.70;99.90;;;;;;5115372;28;20093;-81
2022/12/21 06:32:03;;;;;;;66.47;10.93;;;5.80;99.90;;;;;;5116889;28;20038;-81
2022/12/21 06:34:28;;;;;;;47.60;10.77;;;5.70;99.90;;;;;;5116971;28;20036;-80
2022/12/21 06:36:54;;;;;;;35.13;9.43;;;5.70;99.90;;;;;;5117156;28;20040;-82
2022/12/21 06:39:20;;;;;;;39.47;9.82;;;5.70;99.90;;;;;;5117067;28;20031;-80
2022/12/21 06:41:45;;;;;;;65.72;12.27;;;5.70;99.90;;;;;;5117190;28;20040;-81
2022/12/21 06:44:11;;;;;;;66.43;11.50;;;5.70;99.90;;;;;;5118002;28;20039;-81
2022/12/21 06:46:36;;;;;;;60.22;11.10;;;5.70;99.90;;;;;;5117880;28;20043;-82
2022/12/21 06:49:02;;;;;;;52.05;10.85;;;5.70;99.90;;;;;;5117441;28;20043;-80
2022/12/21 06:51:27;;;;;;;52.25;9.73;;;5.70;99.90;;;;;;5116999;28;20119;-81
2022/12/21 06:53:53;;;;;;;70.20;10.65;;;5.70;99.90;;;;;;5116612;28;20417;-80
2022/12/21 06:56:21;;;;;;;38.90;9.80;;;5.70;99.90;;;;;;5116559;28;20035;-81
2022/12/21 06:58:48;;;;;;;57.53;9.45;;;5.60;99.90;;;;;;5116482;28;20039;-82
2022/12/21 07:01:17;;;;;;;86.38;10.43;;;5.70;99.90;;;;;;5117371;28;20040;-80
2022/12/21 07:03:42;;;;;;;55.63;9.57;;;5.60;99.90;;;;;;5116706;28;20043;-81
2022/12/21 07:06:09;;;;;;;76.25;10.35;;;5.70;99.90;;;;;;5115957;28;20039;-80
2022/12/21 07:08:35;;;;;;;108.65;13.25;;;5.80;99.90;;;;;;5115989;28;20035;-81
2022/12/21 07:11:04;;;;;;;98.50;11.95;;;5.80;99.90;;;;;;5117164;28;20084;-81
2022/12/21 07:13:30;;;;;;;110.68;12.85;;;6.30;99.90;;;;;;5117144;28;20122;-81
2022/12/21 07:15:56;;;;;;;159.95;14.30;;;5.80;99.90;;;;;;5116621;28;20445;-81
2022/12/21 07:18:22;;;;;;;55.85;12.48;;;5.80;99.90;;;;;;5116661;28;20035;-82
2022/12/21 07:20:48;;;;;;;67.25;13.38;;;5.90;99.90;;;;;;5116243;28;20172;-81
2022/12/21 07:23:14;;;;;;;61.65;13.70;;;5.90;99.90;;;;;;5116830;28;20031;-81
2022/12/21 07:25:40;;;;;;;69.35;14.32;;;5.90;99.90;;;;;;5116362;28;20450;-81
2022/12/21 07:28:06;;;;;;;53.65;15.30;;;5.90;99.90;;;;;;5115640;28;20052;-80
2022/12/21 07:30:32;;;;;;;56.72;15.65;;;5.90;99.90;;;;;;5115372;28;20039;-80
2022/12/21 07:32:57;;;;;;;71.60;18.15;;;6.00;99.90;;;;;;5116887;28;20043;-80
2022/12/21 07:35:23;;;;;;;81.07;17.65;;;6.00;99.90;;;;;;5116357;28;20122;-81
2022/12/21 07:37:50;;;;;;;80.95;18.70;;;6.00;99.90;;;;;;5115973;28;20039;-81
2022/12/21 07:40:16;;;;;;;97.32;19.67;;;6.00;99.90;;;;;;5123037;27;20039;-83
2022/12/21 07:42:43;;;;;;;56.97;18.42;;;6.00;99.90;;;;;;5129417;27;20034;-83
2022/12/21 07:45:09;;;;;;;52.28;16.75;;;6.00;99.90;;;;;;5128857;27;20032;-81
2022/12/21 07:47:35;;;;;;;65.53;17.17;;;6.00;99.90;;;;;;5114579;28;20096;-81
2022/12/21 07:50:05;;;;;;;74.13;18.23;;;6.00;99.90;;;;;;5126670;28;20061;-80
2022/12/21 07:52:31;;;;;;;49.65;16.63;;;6.00;99.90;;;;;;5127431;28;20122;-80
2022/12/21 07:54:56;;;;;;;54.75;16.98;;;6.00;99.90;;;;;;5123651;28;20078;-81
2022/12/21 07:57:22;;;;;;;50.75;16.98;;;5.90;99.90;;;;;;5130800;28;20099;-80
2022/12/21 07:59:48;;;;;;;71.80;18.15;;;6.00;99.90;;;;;;5132859;27;20074;-81
2022/12/21 08:02:13;;;;;;;51.22;16.90;;;5.90;99.90;;;;;;5123782;27;20080;-81
2022/12/21 08:04:39;;;;;;;66.00;16.65;;;6.00;99.90;;;;;;5134634;27;20033;-81
2022/12/21 08:07:05;;;;;;;70.90;18.42;;;5.90;99.90;;;;;;5134058;27;20122;-81
2022/12/21 08:09:34;;;;;;;75.40;17.15;;;5.90;99.90;;;;;;5114314;28;20050;-82
2022/12/21 08:12:00;;;;;;;62.10;17.10;;;5.90;99.90;;;;;;5113741;28;20203;-80
2022/12/21 08:14:25;;;;;;;56.22;17.10;;;5.90;99.90;;;;;;5115269;28;20040;-81
2022/12/21 08:16:51;;;;;;;62.78;17.70;;;6.00;99.90;;;;;;5129292;28;20084;-83
2022/12/21 08:19:17;;;;;;;91.80;19.30;;;5.90;99.90;;;;;;5133440;28;20035;-81
2022/12/21 08:21:42;;;;;;;102.10;19.33;;;6.00;99.90;;;;;;5115883;28;20036;-80
2022/12/21 08:24:08;;;;;;;116.78;20.80;;;6.00;99.90;;;;;;5134591;28;20037;-82
2022/12/21 08:26:33;;;;;;;86.35;19.70;;;6.00;99.90;;;;;;5134018;28;20065;-80
2022/12/21 08:28:59;;;;;;;73.45;19.40;;;6.00;99.90;;;;;;5135265;28;20051;-80
2022/12/21 08:31:26;;;;;;;86.70;19.58;;;6.00;99.90;;;;;;5135376;28;20153;-81
2022/12/21 08:33:51;;;;;;;67.53;19.23;;;6.10;99.90;;;;;;5135908;28;20051;-83
2022/12/21 08:36:20;;;;;;;70.40;18.83;;;6.00;99.90;;;;;;5135499;28;20043;-80
2022/12/21 08:38:53;;;;;;;67.82;19.45;;;6.00;99.90;;;;;;5135994;28;20046;-80
2022/12/21 08:41:18;;;;;;;85.15;19.52;;;6.10;99.90;;;;;;5135044;28;20370;-80
2022/12/21 08:43:44;;;;;;;83.53;18.88;;;6.10;99.90;;;;;;5141936;27;20063;-81
2022/12/21 08:46:11;;;;;;;78.28;21.38;;;6.10;99.90;;;;;;5153040;27;20126;-81
2022/12/21 08:48:36;;;;;;;94.47;21.33;;;6.10;99.90;;;;;;5135598;28;20051;-80
2022/12/21 08:51:03;;;;;;;94.13;21.02;;;6.20;99.90;;;;;;5134975;27;20046;-80
2022/12/21 08:53:29;;;;;;;110.10;21.98;;;6.20;99.90;;;;;;5138856;27;20087;-81
2022/12/21 08:55:55;;;;;;;76.43;22.17;;;6.30;99.90;;;;;;5137982;27;20039;-80
2022/12/21 08:58:22;;;;;;;61.10;20.00;;;6.30;99.90;;;;;;5139118;27;20039;-80
2022/12/21 09:00:52;;;;;;;77.90;21.15;;;6.40;99.90;;;;;;5139418;27;20070;-80
2022/12/21 09:03:17;;;;;;;70.03;21.85;;;6.50;99.90;;;;;;5138695;27;20031;-79
2022/12/21 09:05:43;;;;;;;65.50;22.17;;;6.50;99.90;;;;;;5139510;27;20381;-81
2022/12/21 09:08:09;;;;;;;73.47;21.00;;;6.40;99.90;;;;;;5138661;27;20110;-81
2022/12/21 09:10:35;;;;;;;50.33;18.88;;;6.50;99.90;;;;;;5119318;27;20048;-81
2022/12/21 09:13:01;;;;;;;56.65;20.55;;;6.50;99.90;;;;;;5118378;28;20111;-80
2022/12/21 09:15:27;;;;;;;56.60;20.13;;;6.50;99.90;;;;;;5135697;27;20113;-80
2022/12/21 09:17:52;;;;;;;75.80;21.33;;;6.60;99.90;;;;;;5138880;27;20068;-80
2022/12/21 09:20:18;;;;;;;64.82;21.23;;;6.60;99.90;;;;;;5139174;27;20036;-80
2022/12/21 09:22:43;;;;;;;63.53;21.70;;;6.70;99.90;;;;;;5132932;27;20036;-80
2022/12/21 09:25:09;;;;;;;85.20;23.90;;;6.70;99.90;;;;;;5117899;28;20054;-80
2022/12/21 09:27:35;;;;;;;65.20;22.10;;;6.70;99.90;;;;;;5117881;28;20100;-80
2022/12/21 09:30:00;;;;;;;60.03;21.42;;;6.70;99.90;;;;;;5117891;28;20446;-80
2022/12/21 09:32:26;;;;;;;66.78;21.73;;;6.70;99.90;;;;;;5128784;27;20509;-81
2022/12/21 09:34:52;;;;;;;63.22;22.30;;;6.80;99.90;;;;;;5138655;27;20046;-81
2022/12/21 09:37:18;;;;;;;55.20;21.30;;;6.80;99.90;;;;;;5137552;27;20032;-83
2022/12/21 09:39:44;;;;;;;62.47;23.25;;;6.80;99.90;;;;;;5137599;27;20049;-80
2022/12/21 09:42:22;;;;;;;64.85;23.35;;;6.80;99.90;;;;;;5123974;27;20065;-80
2022/12/21 09:45:20;;;;;;;58.78;21.05;;;6.80;99.90;;;;;;5129470;27;20147;-80
2022/12/21 09:47:53;;;;;;;64.47;22.45;;;6.80;99.90;;;;;;5136953;27;20554;-80
2022/12/21 09:50:22;;;;;;;57.97;21.70;;;6.80;99.90;;;;;;5136630;27;20046;-80
2022/12/21 09:52:55;;;;;;;70.20;22.33;;;6.80;99.90;;;;;;5136832;27;20038;-80
2022/12/21 09:55:23;;;;;;;62.00;22.83;;;6.80;99.90;;;;;;5137247;27;20035;-79
2022/12/21 09:57:53;;;;;;;61.53;22.15;;;6.80;99.90;;;;;;5127068;27;20068;-83
2022/12/21 10:00:21;;;;;;;62.38;21.75;;;6.90;99.90;;;;;;5116023;28;20103;-80
2022/12/21 10:03:05;;;;;;;68.28;23.08;;;6.90;99.90;;;;;;5115449;28;20084;-79
2022/12/21 10:05:55;;;;;;;56.47;21.27;;;7.00;99.90;;;;;;5119263;27;20327;-80
2022/12/21 10:08:43;;;;;;;65.40;22.15;;;7.00;99.90;;;;;;5137099;27;20492;-80
2022/12/21 10:11:41;;;;;;;65.05;22.23;;;7.00;99.90;;;;;;5137336;27;20420;-80
2022/12/21 10:14:23;;;;;;;61.45;21.65;;;7.00;99.90;;;;;;5136021;27;20077;-80
2022/12/21 10:17:01;;;;;;;54.47;21.45;;;7.00;99.90;;;;;;5136530;27;20039;-80
2022/12/21 10:19:37;;;;;;;54.05;20.95;;;7.00;99.90;;;;;;5120672;27;20493;-80
2022/12/21 10:22:13;;;;;;;52.78;20.20;;;7.00;99.90;;;;;;5135926;27;20378;-80
2022/12/21 10:24:52;;;;;;;54.13;20.08;;;7.00;99.90;;;;;;5136222;27;20039;-79
2022/12/21 10:27:29;;;;;;;48.60;20.63;;;7.00;99.90;;;;;;5135625;27;20118;-80
2022/12/21 10:29:57;;;;;;;54.00;21.55;;;7.00;99.90;;;;;;5115678;28;20446;-80
2022/12/21 10:32:29;;;;;;;48.22;20.58;;;7.00;99.90;;;;;;5118262;27;20043;-81
2022/12/21 10:34:57;;;;;;;50.10;19.73;;;6.90;99.90;;;;;;5117930;27;20484;-80
2022/12/21 10:37:23;;;;;;;52.03;21.65;;;7.00;99.90;;;;;;5120264;27;20496;-79
2022/12/21 10:39:58;;;;;;;48.90;20.88;;;7.00;99.90;;;;;;5115084;28;20044;-81
2022/12/21 10:42:51;;;;;;;49.88;19.88;;;7.00;99.90;;;;;;5116136;28;20050;-80
2022/12/21 10:45:19;;;;;;;45.83;20.67;;;7.00;99.90;;;;;;5115757;27;20074;-79
2022/12/21 10:47:45;;;;;;;49.65;21.08;;;6.90;99.90;;;;;;5136710;27;20042;-81
2022/12/21 10:50:18;;;;;;;43.70;20.13;;;6.90;99.90;;;;;;5119790;27;20050;-80
2022/12/21 10:52:47;;;;;;;49.13;20.67;;;6.90;99.90;;;;;;5115300;28;20069;-80
2022/12/21 10:55:18;;;;;;;44.10;20.27;;;6.90;99.90;;;;;;5114029;28;20282;-80
2022/12/21 10:57:55;;;;;;;51.13;20.48;;;7.00;99.90;;;;;;5128733;27;20117;-81
2022/12/21 11:00:32;;;;;;;46.72;21.13;;;6.90;99.90;;;;;;5139886;27;20035;-80
2022/12/21 11:03:01;;;;;;;53.38;21.48;;;7.00;99.90;;;;;;5134273;27;20036;-80
2022/12/21 11:05:38;;;;;;;52.90;22.00;;;7.00;99.90;;;;;;5135435;27;20039;-80
2022/12/21 11:08:13;;;;;;;53.15;21.38;;;7.00;99.90;;;;;;5138699;27;20404;-80
2022/12/21 11:10:40;;;;;;;45.47;19.58;;;7.00;99.90;;;;;;5141980;27;20098;-80
2022/12/21 11:13:06;;;;;;;53.42;20.90;;;7.10;99.90;;;;;;5144380;27;20034;-80
2022/12/21 11:15:32;;;;;;;45.58;19.13;;;7.10;99.90;;;;;;5140385;27;20110;-80
2022/12/21 11:17:59;;;;;;;43.85;18.80;;;7.20;99.90;;;;;;5132340;27;20468;-80
2022/12/21 11:20:26;;;;;;;49.88;19.02;;;7.20;99.90;;;;;;5134561;27;20114;-80
2022/12/21 11:22:55;;;;;;;43.72;17.95;;;7.20;99.90;;;;;;5143577;27;20079;-81
2022/12/21 11:25:26;;;;;;;51.00;20.63;;;7.30;99.90;;;;;;5135193;27;20031;-80
2022/12/21 11:27:59;;;;;;;53.20;18.27;;;7.30;99.90;;;;;;5137070;27;20035;-82
2022/12/21 11:30:27;;;;;;;43.05;18.20;;;7.40;99.90;;;;;;5137621;27;20397;-81
2022/12/21 11:32:56;;;;;;;47.08;18.15;;;7.40;99.90;;;;;;5136923;27;20175;-80
2022/12/21 11:35:22;;;;;;;44.10;17.88;;;7.50;99.90;;;;;;5134578;27;20067;-80
2022/12/21 11:37:56;;;;;;;52.40;18.35;;;7.50;99.90;;;;;;5129131;27;20034;-80
2022/12/21 11:40:24;;;;;;;;;;;7.60;99.90;;;;;;5133132;27;20034;-79
2022/12/21 11:43:14;;;;;;;49.53;18.63;;;7.60;99.90;;;;;;5126049;27;19958;-79
2022/12/21 11:46:16;;;;;;;45.90;17.35;;;7.70;99.90;;;;;;5136103;27;20046;-79
2022/12/21 11:49:24;;;;;;;40.60;16.42;;;7.80;99.90;;;;;;5130511;27;20404;-80
2022/12/21 11:52:28;;;;;;;40.75;15.80;;;7.80;99.90;;;;;;5131100;27;20084;-81
2022/12/21 11:55:08;;;;;;;38.22;16.27;;;7.90;99.90;;;;;;5129262;27;20039;-80
2022/12/21 11:58:06;;;;;;;39.83;15.68;;;8.00;99.90;;;;;;5134342;27;20035;-79
2022/12/21 12:00:43;;;;;;;45.72;15.55;;;8.00;99.90;;;;;;5130105;27;20158;-79
2022/12/21 12:03:29;;;;;;;37.13;14.95;;;8.20;99.90;;;;;;5133544;27;20084;-80
2022/12/21 12:06:07;;;;;;;40.75;16.23;;;8.20;99.90;;;;;;5124159;27;20484;-83
2022/12/21 12:09:02;;;;;;;42.55;15.98;;;8.30;99.90;;;;;;5114213;28;20110;-80
2022/12/21 12:12:04;;;;;;;34.88;13.98;;;8.30;99.90;;;;;;5114899;28;20038;-80
2022/12/21 12:15:04;;;;;;;33.50;14.07;;;8.40;99.90;;;;;;5114991;28;20408;-80
2022/12/21 12:17:51;;;;;;;36.95;13.48;;;8.50;99.90;;;;;;5114091;28;20040;-80
2022/12/21 12:20:36;;;;;;;40.80;14.73;;;8.50;99.90;;;;;;5115045;28;20039;-82
2022/12/21 12:23:34;;;;;;;32.00;12.68;;;8.70;99.90;;;;;;5114967;28;20053;-81
2022/12/21 12:26:22;;;;;;;32.28;12.82;;;8.70;99.90;;;;;;5076984;28;20047;-80
2022/12/21 12:29:07;;;;;;;34.03;13.40;;;8.80;99.90;;;;;;5119297;28;20043;-80
2022/12/21 12:31:54;;;;;;;30.42;11.80;;;8.90;99.90;;;;;;5118996;28;20032;-80
2022/12/21 12:34:48;;;;;;;35.83;12.27;;;9.00;99.90;;;;;;5119175;28;20087;-79
2022/12/21 12:37:21;;;;;;;34.05;12.93;;;9.10;99.90;;;;;;5119062;28;20036;-81
2022/12/21 12:40:02;;;;;;;34.92;12.30;;;9.20;99.90;;;;;;5099320;28;20158;-79
2022/12/21 12:42:33;;;;;;;32.42;12.60;;;9.20;99.90;;;;;;5117983;28;20489;-80
2022/12/21 12:45:07;;;;;;;34.20;13.77;;;9.30;99.90;;;;;;5118663;28;20043;-82
2022/12/21 12:47:43;;;;;;;;;;;9.40;99.90;;;;;;5119522;28;20085;-80
2022/12/21 12:50:43;;;;;;;32.33;14.10;;;9.60;99.90;;;;;;5118141;28;19915;-81
2022/12/21 12:53:33;;;;;;;36.70;13.63;;;9.50;99.90;;;;;;5074729;28;20047;-80
2022/12/21 12:56:33;;;;;;;35.03;14.38;;;9.50;99.90;;;;;;5118361;28;20044;-80
2022/12/21 12:59:21;;;;;;;36.45;13.80;;;9.30;99.90;;;;;;5100195;27;20088;-80
2022/12/21 13:02:16;;;;;;;35.53;14.52;;;9.20;99.90;;;;;;5142492;27;20441;-80
2022/12/21 13:04:48;;;;;;;31.23;13.80;;;9.10;99.90;;;;;;5126819;27;20027;-80
2022/12/21 13:07:20;;;;;;;29.67;14.13;;;9.30;99.90;;;;;;5135409;27;20039;-80
2022/12/21 13:10:07;;;;;;;32.58;15.05;;;9.40;99.90;;;;;;5135624;27;20042;-80